createdAt,value
2022-09-22T00:01:40.622Z,8.36
2022-09-22T00:04:12.381Z,8.31
2022-09-22T00:06:47.480Z,8.29
2022-09-22T00:09:18.388Z,8.29
2022-09-22T00:11:49.523Z,8.26
2022-09-22T00:14:21.497Z,8.24
2022-09-22T00:16:52.363Z,8.26
2022-09-22T00:19:23.758Z,8.31
2022-09-22T00:21:54.241Z,8.25
2022-09-22T00:24:23.925Z,8.22
2022-09-22T00:26:53.647Z,8.23
2022-09-22T00:29:23.593Z,8.21
2022-09-22T00:31:52.674Z,8.18
2022-09-22T00:34:24.424Z,8.08
2022-09-22T00:36:54.680Z,7.91
2022-09-22T00:39:23.318Z,7.81
2022-09-22T00:41:54.603Z,7.66
2022-09-22T00:44:35.390Z,7.55
2022-09-22T00:47:13.869Z,7.44
2022-09-22T00:49:49.627Z,7.45
2022-09-22T00:52:23.977Z,7.54
2022-09-22T00:54:55.340Z,7.60
2022-09-22T00:57:26.912Z,7.70
2022-09-22T00:59:56.448Z,7.69
2022-09-22T01:02:25.957Z,7.65
2022-09-22T01:04:55.403Z,7.52
2022-09-22T01:07:29.254Z,7.52
2022-09-22T01:09:59.065Z,7.59
2022-09-22T01:12:30.439Z,7.55
2022-09-22T01:15:20.865Z,7.55
2022-09-22T01:18:05.032Z,7.49
2022-09-22T01:21:08.653Z,7.42
2022-09-22T01:24:24.681Z,7.41
2022-09-22T01:27:16.908Z,7.39
2022-09-22T01:30:23.194Z,7.34
2022-09-22T01:33:07.136Z,7.42
2022-09-22T01:35:46.218Z,7.38
2022-09-22T01:38:20.564Z,7.47
2022-09-22T01:40:54.037Z,7.52
2022-09-22T01:43:34.201Z,7.55
2022-09-22T01:46:10.889Z,7.62
2022-09-22T01:48:44.389Z,7.65
2022-09-22T01:51:18.527Z,7.67
2022-09-22T01:53:52.905Z,7.76
2022-09-22T01:56:25.029Z,7.75
2022-09-22T01:58:57.037Z,7.71
2022-09-22T02:01:30.807Z,7.73
2022-09-22T02:04:05.116Z,7.77
2022-09-22T02:06:38.912Z,7.84
2022-09-22T02:09:09.360Z,7.90
2022-09-22T02:11:38.568Z,7.89
2022-09-22T02:14:08.541Z,7.82
2022-09-22T02:16:39.089Z,7.91
2022-09-22T02:19:13.685Z,7.96
2022-09-22T02:21:45.525Z,8.01
2022-09-22T02:24:28.966Z,8.05
2022-09-22T02:26:58.142Z,8.01
2022-09-22T02:29:28.484Z,8.06
2022-09-22T02:32:00.650Z,8.10
2022-09-22T02:34:29.868Z,8.13
2022-09-22T02:37:06.234Z,8.11
2022-09-22T02:39:41.124Z,8.14
2022-09-22T02:42:23.372Z,8.11
2022-09-22T02:44:57.705Z,8.13
2022-09-22T02:47:33.827Z,8.15
2022-09-22T02:50:06.937Z,8.13
2022-09-22T02:52:37.877Z,8.13
2022-09-22T02:55:08.359Z,8.09
2022-09-22T02:57:37.064Z,8.21
2022-09-22T03:00:07.341Z,8.20
2022-09-22T03:02:37.598Z,8.25
2022-09-22T03:05:07.223Z,8.34
2022-09-22T03:07:36.184Z,8.35
2022-09-22T03:10:05.742Z,8.46
2022-09-22T03:12:34.404Z,8.46
2022-09-22T03:15:03.334Z,8.53
2022-09-22T03:17:33.049Z,8.55
2022-09-22T03:20:04.375Z,8.62
2022-09-22T03:22:33.373Z,8.67
2022-09-22T03:25:02.255Z,8.68
2022-09-22T03:27:32.114Z,8.73
2022-09-22T03:30:00.806Z,8.82
2022-09-22T03:32:29.456Z,8.81
2022-09-22T03:34:58.324Z,8.90
2022-09-22T03:37:28.748Z,8.93
2022-09-22T03:39:57.521Z,8.92
2022-09-22T03:42:26.416Z,8.99
2022-09-22T03:44:55.144Z,9.05
2022-09-22T03:47:23.929Z,9.07
2022-09-22T03:49:52.767Z,9.15
2022-09-22T03:52:21.403Z,9.18
2022-09-22T03:54:52.355Z,9.09
2022-09-22T03:57:21.213Z,9.16
2022-09-22T03:59:50.012Z,9.13
2022-09-22T04:02:18.818Z,9.07
2022-09-22T04:04:47.603Z,9.09
2022-09-22T04:07:16.322Z,9.01
2022-09-22T04:09:45.082Z,8.99
2022-09-22T04:12:15.258Z,8.97
2022-09-22T04:14:44.000Z,8.98
2022-09-22T04:17:12.706Z,9.01
2022-09-22T04:19:41.384Z,9.00
2022-09-22T04:22:10.125Z,8.91
2022-09-22T04:24:38.897Z,8.96
2022-09-22T04:27:19.688Z,8.90
2022-09-22T04:29:51.092Z,8.92
2022-09-22T04:32:20.359Z,8.87
2022-09-22T04:34:49.087Z,8.95
2022-09-22T04:37:17.856Z,8.85
2022-09-22T04:39:46.529Z,8.89
2022-09-22T04:42:15.324Z,8.89
2022-09-22T04:44:44.126Z,8.88
2022-09-22T04:47:14.192Z,8.90
2022-09-22T04:49:42.945Z,8.89
2022-09-22T04:52:11.709Z,8.90
2022-09-22T04:54:40.490Z,8.97
2022-09-22T04:57:09.411Z,9.05
2022-09-22T04:59:38.289Z,9.11
2022-09-22T05:02:07.270Z,9.20
2022-09-22T05:04:37.511Z,9.37
2022-09-22T05:07:06.464Z,9.53
2022-09-22T05:09:35.625Z,9.67
2022-09-22T05:12:04.419Z,9.89
2022-09-22T05:14:33.671Z,10.13
2022-09-22T05:17:02.703Z,10.34
2022-09-22T05:19:31.492Z,10.77
2022-09-22T05:22:01.869Z,11.04
2022-09-22T05:24:31.146Z,11.37
2022-09-22T05:27:00.361Z,11.82
2022-09-22T05:29:30.547Z,12.16
2022-09-22T05:31:59.419Z,12.78
2022-09-22T05:34:28.054Z,13.27
2022-09-22T05:36:56.811Z,13.60
2022-09-22T05:39:27.121Z,14.25
2022-09-22T05:41:55.943Z,14.62
2022-09-22T05:44:24.815Z,14.74
2022-09-22T05:46:53.721Z,14.73
2022-09-22T05:49:22.582Z,14.79
2022-09-22T05:51:55.448Z,14.41
2022-09-22T05:54:24.610Z,15.04
2022-09-22T05:56:54.725Z,14.51
2022-09-22T05:59:23.406Z,15.45
2022-09-22T06:01:56.128Z,15.22
2022-09-22T06:04:27.489Z,14.62
2022-09-22T06:06:56.317Z,14.23
2022-09-22T06:09:25.056Z,13.17
2022-09-22T06:11:55.228Z,12.79
2022-09-22T06:14:24.107Z,12.20
2022-09-22T06:16:53.644Z,11.96
2022-09-22T06:19:23.437Z,12.04
2022-09-22T06:21:52.638Z,12.27
2022-09-22T06:24:22.538Z,12.68
2022-09-22T06:26:51.742Z,13.05
2022-09-22T06:29:21.985Z,13.26
2022-09-22T06:31:50.979Z,13.60
2022-09-22T06:34:20.083Z,13.88
2022-09-22T06:36:48.780Z,13.80
2022-09-22T06:39:17.662Z,13.85
2022-09-22T06:41:46.267Z,14.40
2022-09-22T06:44:16.646Z,14.62
2022-09-22T06:46:47.059Z,14.92
2022-09-22T06:49:15.894Z,15.05
2022-09-22T06:51:44.796Z,15.49
2022-09-22T06:54:13.627Z,15.74
2022-09-22T06:56:42.922Z,15.87
2022-09-22T06:59:13.669Z,15.95
2022-09-22T07:01:43.684Z,15.89
2022-09-22T07:04:15.064Z,15.62
2022-09-22T07:06:45.910Z,15.65
2022-09-22T07:09:14.614Z,15.65
2022-09-22T07:11:44.087Z,15.80
2022-09-22T07:14:13.076Z,15.82
2022-09-22T07:16:43.484Z,15.63
2022-09-22T07:19:13.732Z,15.67
2022-09-22T07:21:44.501Z,15.23
2022-09-22T07:24:13.467Z,15.48
2022-09-22T07:26:44.085Z,15.61
2022-09-22T07:29:13.898Z,16.01
2022-09-22T07:31:43.515Z,16.03
2022-09-22T07:34:14.238Z,16.04
2022-09-22T07:36:43.186Z,15.97
2022-09-22T07:39:12.287Z,15.96
2022-09-22T07:41:43.820Z,16.02
2022-09-22T07:44:41.013Z,16.03
2022-09-22T07:47:13.315Z,16.08
2022-09-22T07:49:44.290Z,16.18
2022-09-22T07:52:14.217Z,15.97
2022-09-22T07:54:43.132Z,16.48
2022-09-22T07:57:12.939Z,16.51
2022-09-22T07:59:42.077Z,16.74
2022-09-22T08:02:11.889Z,16.90
2022-09-22T08:04:41.279Z,17.09
2022-09-22T08:07:11.975Z,17.26
2022-09-22T08:09:40.946Z,17.14
2022-09-22T08:12:10.313Z,17.24
2022-09-22T08:14:39.279Z,17.48
2022-09-22T08:17:12.415Z,17.29
2022-09-22T08:19:41.707Z,17.52
2022-09-22T08:22:13.141Z,17.49
2022-09-22T08:24:43.352Z,17.61
2022-09-22T08:27:12.190Z,17.80
2022-09-22T08:29:41.114Z,17.81
2022-09-22T08:32:09.925Z,18.22
2022-09-22T08:34:38.592Z,18.35
2022-09-22T08:37:07.367Z,18.39
2022-09-22T08:39:38.277Z,17.35
2022-09-22T08:42:14.705Z,16.87
2022-09-22T08:44:58.615Z,17.36
2022-09-22T08:47:50.637Z,17.24
2022-09-22T08:50:45.035Z,17.39
2022-09-22T08:53:18.008Z,17.37
2022-09-22T08:55:52.200Z,17.54
2022-09-22T08:58:37.565Z,17.97
2022-09-22T09:01:18.833Z,17.96
2022-09-22T09:04:11.293Z,17.79
2022-09-22T09:06:48.888Z,17.55
2022-09-22T09:09:34.639Z,17.58
2022-09-22T09:12:39.512Z,17.87
2022-09-22T09:15:26.282Z,18.13
2022-09-22T09:17:58.746Z,18.22
2022-09-22T09:20:35.485Z,18.92
2022-09-22T09:23:12.320Z,19.05
2022-09-22T09:25:42.994Z,18.93
2022-09-22T09:28:18.487Z,18.47
2022-09-22T09:30:52.046Z,17.92
2022-09-22T09:33:30.039Z,17.69
2022-09-22T09:36:00.108Z,17.40
2022-09-22T09:38:30.924Z,17.05
2022-09-22T09:41:11.192Z,16.96
2022-09-22T09:43:42.951Z,17.71
2022-09-22T09:46:27.026Z,18.40
2022-09-22T09:49:06.619Z,18.65
2022-09-22T09:51:39.868Z,19.15
2022-09-22T09:54:14.437Z,19.33
2022-09-22T09:57:03.090Z,19.18
2022-09-22T09:59:50.845Z,19.53
2022-09-22T10:02:22.439Z,19.82
2022-09-22T10:04:54.564Z,19.95
2022-09-22T10:07:27.374Z,20.30
2022-09-22T10:09:57.343Z,20.70
2022-09-22T10:12:31.068Z,20.75
2022-09-22T10:15:02.806Z,21.07
2022-09-22T10:17:34.154Z,21.18
2022-09-22T10:20:20.553Z,21.19
2022-09-22T10:22:50.105Z,21.34
2022-09-22T10:25:28.277Z,21.50
2022-09-22T10:28:07.125Z,21.41
2022-09-22T10:30:38.688Z,21.60
2022-09-22T10:33:15.979Z,21.16
2022-09-22T10:35:47.294Z,20.97
2022-09-22T10:38:20.524Z,20.33
2022-09-22T10:40:55.401Z,20.92
2022-09-22T10:43:41.122Z,21.11
2022-09-22T10:46:40.300Z,21.21
2022-09-22T10:49:14.895Z,21.43
2022-09-22T10:51:57.969Z,21.22
2022-09-22T10:54:47.035Z,21.46
2022-09-22T10:57:26.958Z,21.31
2022-09-22T11:00:11.252Z,21.39
2022-09-22T11:03:10.033Z,20.90
2022-09-22T11:06:13.237Z,21.15
2022-09-22T11:09:06.449Z,21.33
2022-09-22T11:12:00.247Z,21.60
2022-09-22T11:14:42.973Z,21.97
2022-09-22T11:17:31.551Z,22.35
2022-09-22T11:20:32.106Z,22.56
2022-09-22T11:23:27.831Z,22.64
2022-09-22T11:26:30.301Z,21.98
2022-09-22T11:29:23.871Z,21.02
2022-09-22T11:31:57.345Z,19.76
2022-09-22T11:34:34.559Z,19.52
2022-09-22T11:37:27.213Z,19.64
2022-09-22T11:40:21.153Z,19.26
2022-09-22T11:43:05.176Z,18.62
2022-09-22T11:45:50.102Z,18.42
2022-09-22T11:48:33.181Z,17.64
2022-09-22T11:51:19.923Z,17.43
2022-09-22T11:54:05.824Z,17.36
2022-09-22T11:56:41.270Z,17.14
2022-09-22T11:59:26.307Z,16.95
2022-09-22T12:01:58.913Z,17.00
2022-09-22T12:04:36.177Z,17.38
2022-09-22T12:07:11.548Z,17.29
2022-09-22T12:09:48.030Z,17.49
2022-09-22T12:12:20.787Z,17.40
2022-09-22T12:14:58.349Z,17.86
2022-09-22T12:17:35.525Z,18.51
2022-09-22T12:20:15.033Z,19.12
2022-09-22T12:23:03.474Z,19.79
2022-09-22T12:25:49.307Z,20.08
2022-09-22T12:28:25.890Z,19.63
2022-09-22T12:31:05.111Z,19.18
2022-09-22T12:33:35.095Z,18.67
2022-09-22T12:36:05.375Z,18.36
2022-09-22T12:38:34.545Z,18.13
2022-09-22T12:41:05.417Z,17.74
2022-09-22T12:43:36.813Z,17.68
2022-09-22T12:46:14.708Z,17.95
2022-09-22T12:48:48.113Z,17.99
2022-09-22T12:51:32.792Z,18.22
2022-09-22T12:54:37.145Z,17.88
2022-09-22T12:57:38.135Z,17.64
2022-09-22T13:00:32.830Z,17.08
2022-09-22T13:03:24.397Z,16.69
2022-09-22T13:05:54.700Z,16.38
2022-09-22T13:08:26.576Z,16.17
2022-09-22T13:11:02.755Z,16.04
2022-09-22T13:13:50.861Z,16.05
2022-09-22T13:16:37.588Z,15.97
2022-09-22T13:19:15.118Z,15.87
2022-09-22T13:21:44.056Z,15.90
2022-09-22T13:24:23.544Z,15.83
2022-09-22T13:27:05.304Z,15.53
2022-09-22T13:29:34.679Z,15.48
2022-09-22T13:32:18.594Z,15.23
2022-09-22T13:34:47.819Z,15.03
2022-09-22T13:37:20.495Z,15.00
2022-09-22T13:39:52.854Z,15.02
2022-09-22T13:42:24.339Z,14.95
2022-09-22T13:44:59.574Z,14.83
2022-09-22T13:47:30.394Z,14.93
2022-09-22T13:50:06.112Z,14.97
2022-09-22T13:52:39.620Z,15.12
2022-09-22T13:55:14.226Z,15.33
2022-09-22T13:57:44.152Z,15.58
2022-09-22T14:00:24.794Z,15.82
2022-09-22T14:02:57.918Z,16.02
2022-09-22T14:05:28.390Z,16.05
2022-09-22T14:08:11.966Z,16.13
2022-09-22T14:10:43.645Z,16.32
2022-09-22T14:13:37.740Z,16.41
2022-09-22T14:16:23.687Z,16.30
2022-09-22T14:18:59.497Z,16.22
2022-09-22T14:21:28.381Z,16.06
2022-09-22T14:23:57.846Z,15.94
2022-09-22T14:26:33.575Z,15.74
2022-09-22T14:29:14.953Z,15.77
2022-09-22T14:31:48.457Z,15.71
2022-09-22T14:34:24.935Z,15.51
2022-09-22T14:36:56.399Z,15.64
2022-09-22T14:39:31.789Z,15.57
2022-09-22T14:42:09.322Z,15.40
2022-09-22T14:44:49.919Z,15.27
2022-09-22T14:47:28.251Z,15.23
2022-09-22T14:50:20.252Z,15.06
2022-09-22T14:52:58.079Z,14.91
2022-09-22T14:55:32.490Z,14.59
2022-09-22T14:58:05.351Z,14.64
2022-09-22T15:00:52.020Z,14.42
2022-09-22T15:03:27.967Z,14.38
2022-09-22T15:06:07.670Z,14.34
2022-09-22T15:08:37.473Z,14.21
2022-09-22T15:11:07.564Z,14.17
2022-09-22T15:13:41.629Z,14.10
2022-09-22T15:16:36.958Z,14.14
2022-09-22T15:19:06.419Z,14.07
2022-09-22T15:21:40.779Z,14.07
2022-09-22T15:24:12.998Z,14.08
2022-09-22T15:26:43.845Z,13.98
2022-09-22T15:29:13.521Z,14.01
2022-09-22T15:31:42.389Z,13.94
2022-09-22T15:34:13.935Z,13.95
2022-09-22T15:36:50.170Z,13.99
2022-09-22T15:39:24.251Z,14.02
2022-09-22T15:41:54.384Z,13.95
2022-09-22T15:44:23.289Z,13.99
2022-09-22T15:46:55.412Z,14.03
2022-09-22T15:49:26.658Z,13.96
2022-09-22T15:51:57.003Z,13.85
2022-09-22T15:54:27.753Z,13.90
2022-09-22T15:56:58.134Z,13.90
2022-09-22T15:59:29.268Z,13.81
2022-09-22T16:01:59.645Z,13.81
2022-09-22T16:04:30.209Z,13.76
2022-09-22T16:07:04.220Z,13.69
2022-09-22T16:09:33.522Z,13.68
2022-09-22T16:12:03.387Z,13.55
2022-09-22T16:14:32.398Z,13.44
2022-09-22T16:17:01.398Z,13.41
2022-09-22T16:19:32.244Z,13.40
2022-09-22T16:22:02.928Z,13.41
2022-09-22T16:24:32.799Z,13.39
2022-09-22T16:27:02.275Z,13.41
2022-09-22T16:29:31.283Z,13.39
2022-09-22T16:32:00.084Z,13.34
2022-09-22T16:34:29.473Z,13.25
2022-09-22T16:36:58.438Z,13.19
2022-09-22T16:39:28.607Z,13.10
2022-09-22T16:41:57.404Z,13.04
2022-09-22T16:44:26.684Z,12.94
2022-09-22T16:46:55.551Z,12.92
2022-09-22T16:49:25.845Z,12.86
2022-09-22T16:51:55.256Z,12.83
2022-09-22T16:54:24.951Z,12.83
2022-09-22T16:56:55.586Z,12.79
2022-09-22T16:59:24.971Z,12.82
2022-09-22T17:01:53.978Z,12.73
2022-09-22T17:04:22.865Z,12.73
2022-09-22T17:06:51.850Z,12.72
2022-09-22T17:09:20.860Z,12.67
2022-09-22T17:11:50.038Z,12.63
2022-09-22T17:14:23.187Z,12.58
2022-09-22T17:16:53.706Z,12.54
2022-09-22T17:19:24.449Z,12.53
2022-09-22T17:21:55.482Z,12.48
2022-09-22T17:24:25.827Z,12.46
2022-09-22T17:26:56.657Z,12.26
2022-09-22T17:29:29.103Z,12.23
2022-09-22T17:31:59.753Z,12.14
2022-09-22T17:34:29.798Z,12.16
2022-09-22T17:36:58.801Z,12.17
2022-09-22T17:39:29.020Z,12.16
2022-09-22T17:41:57.821Z,12.15
2022-09-22T17:44:33.621Z,11.98
2022-09-22T17:47:19.439Z,11.98
2022-09-22T17:50:05.568Z,11.94
2022-09-22T17:52:51.879Z,11.87
2022-09-22T17:55:25.567Z,11.74
2022-09-22T17:57:56.508Z,11.70
2022-09-22T18:00:26.898Z,11.67
2022-09-22T18:02:56.714Z,11.58
2022-09-22T18:05:27.388Z,11.58
2022-09-22T18:07:58.789Z,11.54
2022-09-22T18:10:32.317Z,11.53
2022-09-22T18:13:02.483Z,11.48
2022-09-22T18:15:32.614Z,11.37
2022-09-22T18:18:01.590Z,11.27
2022-09-22T18:20:34.308Z,11.18
2022-09-22T18:23:03.324Z,11.18
2022-09-22T18:25:34.147Z,11.13
2022-09-22T18:28:04.126Z,10.95
2022-09-22T18:30:34.364Z,10.98
2022-09-22T18:33:03.292Z,10.94
2022-09-22T18:35:32.392Z,11.00
2022-09-22T18:38:01.224Z,11.00
2022-09-22T18:40:30.265Z,11.03
2022-09-22T18:42:59.585Z,10.99
2022-09-22T18:45:28.335Z,11.06
2022-09-22T18:47:59.497Z,11.14
2022-09-22T18:50:34.468Z,11.11
2022-09-22T18:53:03.413Z,11.09
2022-09-22T18:55:32.620Z,11.05
2022-09-22T18:58:01.326Z,10.88
2022-09-22T19:00:30.030Z,10.73
2022-09-22T19:03:00.504Z,10.82
2022-09-22T19:05:29.378Z,10.73
2022-09-22T19:08:00.914Z,10.73
2022-09-22T19:10:29.948Z,10.70
2022-09-22T19:12:59.733Z,10.64
2022-09-22T19:15:28.788Z,10.31
2022-09-22T19:17:57.827Z,10.42
2022-09-22T19:20:28.729Z,10.41
2022-09-22T19:22:57.499Z,10.49
2022-09-22T19:25:26.830Z,10.45
2022-09-22T19:27:56.140Z,10.51
2022-09-22T19:30:28.419Z,10.50
2022-09-22T19:32:59.644Z,10.45
2022-09-22T19:35:30.362Z,10.43
2022-09-22T19:37:59.794Z,10.39
2022-09-22T19:40:28.755Z,10.34
2022-09-22T19:42:57.433Z,10.32
2022-09-22T19:45:27.056Z,10.33
2022-09-22T19:47:57.114Z,10.19
2022-09-22T19:50:26.272Z,10.27
2022-09-22T19:52:56.442Z,10.21
2022-09-22T19:55:25.290Z,10.15
2022-09-22T19:57:54.405Z,9.99
2022-09-22T20:00:26.461Z,9.97
2022-09-22T20:02:58.923Z,9.96
2022-09-22T20:05:31.666Z,9.90
2022-09-22T20:08:02.296Z,9.87
2022-09-22T20:10:31.723Z,9.80
2022-09-22T20:13:00.922Z,9.80
2022-09-22T20:15:29.599Z,9.80
2022-09-22T20:17:58.235Z,9.73
2022-09-22T20:20:30.707Z,9.76
2022-09-22T20:23:01.815Z,9.79
2022-09-22T20:25:33.064Z,9.75
2022-09-22T20:28:01.778Z,9.70
2022-09-22T20:30:30.450Z,9.70
2022-09-22T20:32:59.537Z,9.67
2022-09-22T20:35:28.381Z,9.71
2022-09-22T20:37:58.464Z,9.71
2022-09-22T20:40:29.244Z,9.59
2022-09-22T20:42:58.284Z,9.62
2022-09-22T20:45:27.399Z,9.58
2022-09-22T20:47:56.486Z,9.53
2022-09-22T20:50:25.523Z,9.50
2022-09-22T20:52:55.648Z,9.51
2022-09-22T20:55:24.453Z,9.39
2022-09-22T20:57:54.892Z,9.40
2022-09-22T21:00:23.751Z,9.39
2022-09-22T21:02:53.712Z,9.34
2022-09-22T21:05:23.046Z,9.30
2022-09-22T21:08:12.873Z,9.29
2022-09-22T21:10:40.515Z,9.21
2022-09-22T21:13:10.686Z,9.12
2022-09-22T21:15:39.532Z,9.09
2022-09-22T21:18:08.170Z,9.09
2022-09-22T21:20:36.889Z,9.09
2022-09-22T21:23:05.636Z,9.07
2022-09-22T21:25:34.235Z,9.01
2022-09-22T21:28:03.153Z,9.00
2022-09-22T21:30:33.224Z,8.95
2022-09-22T21:33:02.814Z,8.96
2022-09-22T21:35:31.353Z,8.88
2022-09-22T21:37:59.893Z,8.91
2022-09-22T21:40:28.729Z,8.89
2022-09-22T21:42:57.616Z,8.88
2022-09-22T21:45:26.331Z,8.85
2022-09-22T21:47:56.412Z,8.85
2022-09-22T21:50:25.061Z,8.78
2022-09-22T21:52:54.096Z,8.74
2022-09-22T21:55:22.839Z,8.78
2022-09-22T21:57:54.335Z,8.80
2022-09-22T22:00:48.126Z,8.73
2022-09-22T22:03:30.488Z,8.77
2022-09-22T22:06:13.546Z,8.72
2022-09-22T22:08:44.651Z,8.80
2022-09-22T22:11:16.249Z,8.80
2022-09-22T22:13:46.927Z,8.81
2022-09-22T22:16:16.135Z,8.83
2022-09-22T22:18:46.409Z,8.75
2022-09-22T22:21:17.640Z,8.70
2022-09-22T22:23:48.585Z,8.72
2022-09-22T22:26:20.857Z,8.71
2022-09-22T22:28:50.579Z,8.71
2022-09-22T22:31:21.308Z,8.69
2022-09-22T22:33:51.852Z,8.67
2022-09-22T22:36:20.891Z,8.66
2022-09-22T22:38:53.780Z,8.65
2022-09-22T22:41:22.533Z,8.60
2022-09-22T22:43:51.323Z,8.51
2022-09-22T22:46:20.308Z,8.50
2022-09-22T22:48:50.803Z,8.37
2022-09-22T22:51:21.727Z,8.40
2022-09-22T22:53:50.857Z,8.35
2022-09-22T22:56:20.968Z,8.42
2022-09-22T22:58:51.300Z,8.36
2022-09-22T23:01:22.270Z,8.32
2022-09-22T23:03:54.929Z,8.33
2022-09-22T23:06:25.744Z,8.20
2022-09-22T23:08:54.942Z,8.21
2022-09-22T23:11:27.287Z,8.12
2022-09-22T23:13:59.736Z,8.15
2022-09-22T23:16:29.767Z,8.08
2022-09-22T23:19:02.648Z,8.12
2022-09-22T23:21:31.840Z,8.12
2022-09-22T23:24:01.199Z,8.11
2022-09-22T23:26:30.447Z,8.16
2022-09-22T23:29:00.099Z,8.16
2022-09-22T23:31:29.188Z,8.16
2022-09-22T23:33:59.433Z,8.15
2022-09-22T23:36:30.087Z,8.16
2022-09-22T23:39:04.315Z,8.15
2022-09-22T23:41:35.288Z,8.19
2022-09-22T23:44:07.054Z,8.12
2022-09-22T23:46:37.598Z,8.05
2022-09-22T23:49:08.145Z,8.06
2022-09-22T23:51:37.148Z,8.05
2022-09-22T23:54:06.289Z,8.02
2022-09-22T23:56:35.176Z,7.96
2022-09-22T23:59:03.886Z,7.91
